Time;durP1;ratioP1;P1;durP2;ratioP2;P2;SDS_P1;SDS_P2;PMS_P1;PMS_P2;Temp;Humidity;BMP_temperature;BMP_pressure;BME280_temperature;BME280_humidity;BME280_pressure;Samples;Min_cycle;Max_cycle;Signal;HPM_P1;HPM_P2
2023/12/16 00:02:24;;;;;;;13.30;2.63;;;7.00;99.90;;;;;;5156661;27;20053;-86
2023/12/16 00:04:49;;;;;;;11.05;2.05;;;6.40;99.90;;;;;;5175357;27;20565;-85
2023/12/16 00:07:15;;;;;;;13.32;3.08;;;6.50;99.90;;;;;;5156915;27;20046;-87
2023/12/16 00:09:41;;;;;;;15.27;2.35;;;6.40;99.90;;;;;;5156094;27;20394;-86
2023/12/16 00:12:07;;;;;;;15.30;2.25;;;7.00;99.90;;;;;;5157274;27;20105;-86
2023/12/16 00:14:36;;;;;;;11.90;2.22;;;6.40;99.90;;;;;;5175405;27;20038;-86
2023/12/16 00:17:02;;;;;;;13.23;2.13;;;6.90;99.90;;;;;;5155984;27;20038;-85
2023/12/16 00:19:29;;;;;;;8.02;1.98;;;6.40;99.90;;;;;;5174732;27;20505;-85
2023/12/16 00:21:55;;;;;;;6.25;1.65;;;7.10;99.90;;;;;;5144940;27;20046;-85
2023/12/16 00:24:20;;;;;;;7.05;1.50;;;7.10;99.90;;;;;;5172656;27;20042;-85
2023/12/16 00:26:46;;;;;;;6.97;1.92;;;6.60;99.90;;;;;;5156999;27;20121;-85
2023/12/16 00:29:13;;;;;;;6.18;1.85;;;6.60;99.90;;;;;;5155791;27;20398;-85
2023/12/16 00:31:38;;;;;;;8.88;1.50;;;7.10;99.90;;;;;;5156406;27;20042;-85
2023/12/16 00:34:05;;;;;;;11.27;1.67;;;6.90;99.90;;;;;;5155856;27;20053;-86
2023/12/16 00:36:31;;;;;;;8.40;1.58;;;7.20;99.90;;;;;;5156022;27;20048;-85
2023/12/16 00:38:58;;;;;;;18.67;2.15;;;6.20;99.90;;;;;;5156188;27;20156;-86
2023/12/16 00:41:25;;;;;;;7.35;1.40;;;7.00;99.90;;;;;;5139143;27;20081;-86
2023/12/16 00:43:51;;;;;;;6.82;1.40;;;7.00;99.90;;;;;;5156364;27;20137;-85
2023/12/16 00:46:17;;;;;;;7.72;1.60;;;5.30;99.90;;;;;;5175237;27;20073;-85
2023/12/16 00:48:43;;;;;;;10.63;1.63;;;6.90;99.90;;;;;;5156312;27;20474;-86
2023/12/16 00:51:08;;;;;;;9.23;1.90;;;6.90;99.90;;;;;;5174076;27;20038;-85
2023/12/16 00:53:34;;;;;;;10.70;1.55;;;6.90;99.90;;;;;;5156612;27;20107;-85
2023/12/16 00:56:00;;;;;;;11.82;1.50;;;6.50;99.90;;;;;;5139377;27;20382;-86
2023/12/16 00:58:25;;;;;;;7.70;1.48;;;6.50;99.90;;;;;;5156031;27;20042;-86
2023/12/16 01:00:51;;;;;;;8.18;1.75;;;6.20;99.90;;;;;;5156203;27;20070;-86
2023/12/16 01:03:17;;;;;;;4.20;1.70;;;6.80;99.90;;;;;;5155766;27;20075;-86
2023/12/16 01:05:43;;;;;;;11.95;1.85;;;7.10;99.90;;;;;;5155905;27;20490;-85
2023/12/16 01:08:09;;;;;;;7.93;2.28;;;6.90;99.90;;;;;;5156355;27;20038;-85
2023/12/16 01:10:35;;;;;;;6.50;1.83;;;6.10;99.90;;;;;;5156225;27;20042;-86
2023/12/16 01:13:01;;;;;;;8.15;1.55;;;6.10;99.90;;;;;;5155349;27;20070;-86
2023/12/16 01:15:27;;;;;;;6.47;1.50;;;6.70;99.90;;;;;;5156224;27;20085;-85
2023/12/16 01:17:53;;;;;;;13.48;1.75;;;6.10;99.90;;;;;;5156371;27;20077;-85
2023/12/16 01:20:19;;;;;;;6.32;1.20;;;6.10;99.90;;;;;;5155845;27;20503;-85
2023/12/16 01:22:44;;;;;;;12.90;2.22;;;6.10;99.90;;;;;;5175008;27;20126;-85
2023/12/16 01:25:10;;;;;;;7.95;1.63;;;6.30;99.90;;;;;;5138982;27;20064;-86
2023/12/16 01:27:36;;;;;;;8.57;1.52;;;6.10;99.90;;;;;;5160569;27;20098;-86
2023/12/16 01:30:03;;;;;;;5.38;1.42;;;6.40;99.90;;;;;;5160591;27;20121;-85
2023/12/16 01:32:29;;;;;;;6.60;1.50;;;6.00;99.90;;;;;;5142344;27;20046;-86
2023/12/16 01:34:56;;;;;;;6.15;1.27;;;6.00;99.90;;;;;;5160325;27;20286;-85
2023/12/16 01:37:22;;;;;;;10.30;2.10;;;6.80;99.90;;;;;;5160285;27;20042;-86
2023/12/16 01:39:47;;;;;;;11.80;2.08;;;6.60;99.90;;;;;;5142980;27;20524;-86
2023/12/16 01:42:13;;;;;;;9.95;2.47;;;6.10;99.90;;;;;;5159944;27;20079;-85
2023/12/16 01:44:39;;;;;;;13.82;1.77;;;6.40;99.90;;;;;;5179506;27;20034;-86
2023/12/16 01:47:05;;;;;;;5.35;1.25;;;6.50;99.90;;;;;;5160274;27;20137;-85
2023/12/16 01:49:31;;;;;;;11.05;1.50;;;5.90;99.90;;;;;;5160193;27;20451;-86
2023/12/16 01:51:57;;;;;;;11.82;1.23;;;6.40;99.90;;;;;;5159858;27;20121;-86
2023/12/16 01:54:23;;;;;;;7.82;1.40;;;5.90;99.90;;;;;;5159136;27;20125;-86
2023/12/16 01:56:57;;;;;;;8.52;1.60;;;5.90;99.90;;;;;;5178112;27;20447;-86
2023/12/16 01:59:25;;;;;;;11.85;1.35;;;5.90;99.90;;;;;;5178331;27;20043;-86
2023/12/16 02:01:50;;;;;;;6.75;0.98;;;6.50;99.90;;;;;;5159539;27;20057;-86
2023/12/16 02:04:18;;;;;;;8.35;1.30;;;6.30;99.90;;;;;;5177742;27;20042;-85
2023/12/16 02:06:44;;;;;;;8.50;1.25;;;6.50;99.90;;;;;;5140864;27;20038;-86
2023/12/16 02:09:10;;;;;;;10.65;1.45;;;6.30;99.90;;;;;;5178063;27;20041;-85
2023/12/16 02:11:36;;;;;;;8.82;1.25;;;6.50;99.90;;;;;;5159735;27;20042;-86
2023/12/16 02:14:02;;;;;;;5.38;1.10;;;6.00;99.90;;;;;;5159174;27;20098;-86
2023/12/16 02:16:27;;;;;;;5.40;1.08;;;5.90;99.90;;;;;;5177699;27;20034;-86
2023/12/16 02:18:53;;;;;;;8.00;1.20;;;5.90;99.90;;;;;;5159160;27;20497;-85
2023/12/16 02:21:19;;;;;;;10.98;1.05;;;5.50;99.90;;;;;;5158604;27;20045;-85
2023/12/16 02:23:44;;;;;;;9.52;1.65;;;6.60;99.90;;;;;;5159329;27;20129;-85
2023/12/16 02:26:10;;;;;;;15.60;1.25;;;5.50;99.90;;;;;;5176780;27;20446;-86
2023/12/16 02:28:36;;;;;;;10.27;1.60;;;6.60;99.90;;;;;;5141756;27;20068;-86
2023/12/16 02:31:02;;;;;;;10.35;1.10;;;6.20;99.90;;;;;;5158921;27;20126;-85
2023/12/16 02:33:27;;;;;;;8.88;1.20;;;5.90;99.90;;;;;;5177552;27;20038;-86
2023/12/16 02:35:53;;;;;;;4.57;1.10;;;6.80;99.90;;;;;;5177027;27;20457;-85
2023/12/16 02:38:19;;;;;;;8.85;1.33;;;6.40;99.90;;;;;;5177093;27;20097;-85
2023/12/16 02:40:44;;;;;;;8.00;1.20;;;6.60;99.90;;;;;;5158321;27;20081;-85
2023/12/16 02:43:10;;;;;;;6.60;1.08;;;6.10;99.90;;;;;;5158707;27;20042;-85
2023/12/16 02:45:36;;;;;;;7.00;1.10;;;5.30;99.90;;;;;;5158144;27;20042;-84
2023/12/16 02:48:02;;;;;;;5.05;1.30;;;5.90;99.90;;;;;;5155179;27;20038;-85
2023/12/16 02:50:27;;;;;;;8.25;1.30;;;5.90;99.90;;;;;;5158342;27;20043;-85
2023/12/16 02:52:53;;;;;;;8.93;1.67;;;6.50;99.90;;;;;;5176746;27;20049;-85
2023/12/16 02:55:19;;;;;;;10.20;1.20;;;6.60;99.90;;;;;;5177095;27;20542;-85
2023/12/16 02:57:44;;;;;;;7.72;1.15;;;6.70;99.90;;;;;;5157971;27;20042;-85
2023/12/16 03:00:10;;;;;;;9.57;1.88;;;5.20;99.90;;;;;;5176342;27;20045;-85
2023/12/16 03:02:36;;;;;;;11.45;1.38;;;5.80;99.90;;;;;;5140893;27;20129;-86
2023/12/16 03:05:03;;;;;;;14.98;2.47;;;5.80;99.90;;;;;;5177157;27;20450;-85
2023/12/16 03:07:29;;;;;;;13.40;1.65;;;5.90;99.90;;;;;;5140628;27;20076;-85
2023/12/16 03:09:54;;;;;;;9.73;1.55;;;6.40;99.90;;;;;;5157479;27;20070;-84
2023/12/16 03:12:20;;;;;;;9.55;1.90;;;6.50;99.90;;;;;;5157895;27;20081;-85
2023/12/16 03:14:46;;;;;;;10.75;1.95;;;5.90;99.90;;;;;;5157649;27;20450;-85
2023/12/16 03:17:12;;;;;;;10.32;1.85;;;5.90;99.90;;;;;;5140997;27;20034;-85
2023/12/16 03:19:38;;;;;;;9.43;2.03;;;5.90;99.90;;;;;;5175874;27;20095;-85
2023/12/16 03:22:04;;;;;;;12.35;1.60;;;5.80;99.90;;;;;;5140706;27;20095;-85
2023/12/16 03:24:29;;;;;;;8.95;1.48;;;5.80;99.90;;;;;;5157497;27;20091;-85
2023/12/16 03:26:55;;;;;;;8.88;1.60;;;5.80;99.90;;;;;;5157843;27;20045;-85
2023/12/16 03:29:21;;;;;;;13.50;2.22;;;6.40;99.90;;;;;;5140181;27;20458;-85
2023/12/16 03:31:46;;;;;;;9.07;2.10;;;6.50;99.90;;;;;;5156593;27;20053;-85
2023/12/16 03:34:12;;;;;;;7.68;1.75;;;6.70;99.90;;;;;;5157531;27;20038;-85
2023/12/16 03:36:38;;;;;;;13.93;2.00;;;5.70;99.90;;;;;;5176328;27;20398;-85
2023/12/16 03:39:04;;;;;;;16.45;2.45;;;6.40;99.90;;;;;;5157515;27;20034;-85
2023/12/16 03:41:29;;;;;;;12.45;1.80;;;6.50;99.90;;;;;;5175406;27;20041;-85
2023/12/16 03:43:55;;;;;;;11.70;1.90;;;5.50;99.90;;;;;;5175881;27;20038;-86
2023/12/16 03:46:21;;;;;;;9.63;1.58;;;5.70;99.90;;;;;;5157603;27;20038;-85
2023/12/16 03:48:48;;;;;;;15.20;2.05;;;;;;;;;;5155950;27;20049;-85
2023/12/16 03:51:14;;;;;;;18.08;2.47;;;5.70;99.90;;;;;;5175355;27;20042;-85
2023/12/16 03:53:39;;;;;;;9.80;2.08;;;5.60;99.90;;;;;;5139423;27;20052;-86
2023/12/16 03:56:05;;;;;;;18.00;2.53;;;5.70;99.90;;;;;;5175980;27;20125;-85
2023/12/16 03:58:31;;;;;;;17.58;2.33;;;5.70;99.90;;;;;;5175945;27;20044;-85
2023/12/16 04:00:57;;;;;;;16.52;2.22;;;6.20;99.90;;;;;;5175708;27;20046;-86
2023/12/16 04:03:23;;;;;;;13.00;2.28;;;5.60;99.90;;;;;;5156498;27;20117;-85
2023/12/16 04:05:49;;;;;;;12.60;2.33;;;6.50;99.90;;;;;;5156292;27;20042;-85
2023/12/16 04:08:15;;;;;;;6.75;2.03;;;5.60;99.90;;;;;;5175862;27;20299;-85
2023/12/16 04:10:41;;;;;;;16.98;2.33;;;6.40;99.90;;;;;;5174925;27;20558;-85
2023/12/16 04:13:07;;;;;;;12.60;1.92;;;6.10;99.90;;;;;;5175319;27;20038;-86
2023/12/16 04:15:32;;;;;;;14.30;2.90;;;5.90;99.90;;;;;;5156915;27;20418;-85
2023/12/16 04:17:58;;;;;;;13.63;2.15;;;6.40;99.90;;;;;;5175590;27;20030;-86
2023/12/16 04:20:26;;;;;;;18.60;3.08;;;5.60;99.90;;;;;;5156813;27;20490;-86
2023/12/16 04:22:51;;;;;;;11.60;1.58;;;5.80;99.90;;;;;;5156345;27;20130;-86
2023/12/16 04:25:17;;;;;;;6.35;1.30;;;6.00;99.90;;;;;;5174696;27;20076;-85
2023/12/16 04:27:43;;;;;;;11.65;2.00;;;6.40;99.90;;;;;;5156729;27;20554;-85
2023/12/16 04:30:08;;;;;;;15.25;2.50;;;5.90;99.90;;;;;;5156821;27;20041;-85
2023/12/16 04:32:34;;;;;;;15.40;2.05;;;5.50;99.90;;;;;;5156621;27;20080;-85
2023/12/16 04:35:00;;;;;;;12.77;1.73;;;5.50;99.90;;;;;;5156514;27;20129;-86
2023/12/16 04:37:25;;;;;;;12.48;1.70;;;5.80;99.90;;;;;;5156763;27;20516;-86
2023/12/16 04:39:51;;;;;;;12.30;1.70;;;6.10;99.90;;;;;;5156198;27;20060;-85
2023/12/16 04:42:17;;;;;;;17.38;2.47;;;5.50;99.90;;;;;;5156480;27;20134;-85
2023/12/16 04:44:42;;;;;;;13.57;1.60;;;6.30;99.90;;;;;;5156155;27;20501;-85
2023/12/16 04:47:08;;;;;;;16.95;2.22;;;5.50;99.90;;;;;;5156476;27;20042;-85
2023/12/16 04:49:34;;;;;;;12.27;2.40;;;5.80;99.90;;;;;;5175156;27;20083;-85
2023/12/16 04:52:00;;;;;;;10.63;2.35;;;5.40;99.90;;;;;;5156409;27;20034;-85
2023/12/16 04:54:28;;;;;;;12.95;1.80;;;6.20;99.90;;;;;;5155857;27;20385;-86
2023/12/16 04:56:54;;;;;;;13.20;1.85;;;5.50;99.90;;;;;;5175034;27;20043;-85
2023/12/16 04:59:19;;;;;;;16.33;2.50;;;6.20;99.90;;;;;;5174929;27;20546;-86
2023/12/16 05:01:45;;;;;;;18.38;2.60;;;5.80;99.90;;;;;;5159344;27;20477;-85
2023/12/16 05:04:11;;;;;;;16.00;2.50;;;5.50;99.90;;;;;;5142977;27;20058;-85
2023/12/16 05:06:36;;;;;;;14.50;2.75;;;6.00;99.90;;;;;;5160832;27;20394;-86
2023/12/16 05:09:06;;;;;;;10.40;2.33;;;5.90;99.90;;;;;;5161212;27;20378;-85
2023/12/16 05:11:32;;;;;;;13.32;2.85;;;5.60;99.90;;;;;;5179611;27;20034;-85
2023/12/16 05:13:58;;;;;;;19.05;2.85;;;6.40;99.90;;;;;;5179340;27;20061;-85
2023/12/16 05:16:26;;;;;;;14.63;2.50;;;5.70;99.90;;;;;;5178146;27;20038;-85
2023/12/16 05:18:51;;;;;;;11.02;2.47;;;5.70;99.90;;;;;;5143015;27;20046;-85
2023/12/16 05:21:17;;;;;;;22.13;3.38;;;6.40;99.90;;;;;;5179590;27;20045;-85
2023/12/16 05:23:43;;;;;;;18.98;2.83;;;6.40;99.90;;;;;;5143685;27;20069;-85
2023/12/16 05:26:08;;;;;;;18.27;3.28;;;5.60;99.90;;;;;;5160228;27;20453;-85
2023/12/16 05:28:34;;;;;;;15.52;3.60;;;6.00;99.90;;;;;;5143377;27;20045;-86
2023/12/16 05:31:00;;;;;;;12.25;3.17;;;5.70;99.90;;;;;;5160402;27;20494;-85
2023/12/16 05:33:25;;;;;;;17.52;3.67;;;5.80;99.90;;;;;;5178972;27;20077;-86
2023/12/16 05:35:51;;;;;;;20.40;4.20;;;6.00;99.90;;;;;;5178360;27;20464;-86
2023/12/16 05:38:17;;;;;;;20.52;3.80;;;5.80;99.90;;;;;;5159707;27;20045;-85
2023/12/16 05:40:42;;;;;;;16.73;3.55;;;6.20;99.90;;;;;;5160146;27;20149;-85
2023/12/16 05:43:08;;;;;;;16.88;3.00;;;6.70;99.90;;;;;;5178456;27;20126;-86
2023/12/16 05:45:34;;;;;;;18.67;3.33;;;6.30;99.90;;;;;;5178299;27;20045;-86
2023/12/16 05:48:00;;;;;;;18.45;3.65;;;6.80;99.90;;;;;;5178020;27;20034;-86
2023/12/16 05:50:25;;;;;;;19.30;3.15;;;6.30;99.90;;;;;;5159579;27;20084;-86
2023/12/16 05:52:53;;;;;;;22.67;4.15;;;6.70;99.90;;;;;;5159847;27;20470;-86
2023/12/16 05:55:19;;;;;;;14.57;3.05;;;6.20;99.90;;;;;;5142079;27;20053;-86
2023/12/16 05:57:45;;;;;;;18.38;3.90;;;6.00;99.90;;;;;;5159106;27;20449;-85
2023/12/16 06:00:11;;;;;;;23.73;3.35;;;6.00;99.90;;;;;;5178311;27;20041;-85
2023/12/16 06:02:36;;;;;;;14.77;3.60;;;6.00;99.90;;;;;;5177984;27;20034;-85
2023/12/16 06:05:03;;;;;;;16.33;3.65;;;6.00;99.90;;;;;;5138246;27;20499;-85
2023/12/16 06:07:29;;;;;;;10.48;3.08;;;6.00;99.90;;;;;;5155451;27;20046;-85
2023/12/16 06:09:55;;;;;;;14.77;3.83;;;6.00;99.90;;;;;;5155841;27;20048;-85
2023/12/16 06:12:20;;;;;;;27.08;4.07;;;6.40;99.90;;;;;;5156424;27;20490;-85
2023/12/16 06:14:46;;;;;;;24.83;4.80;;;6.50;99.90;;;;;;5156846;27;20042;-86
2023/12/16 06:17:12;;;;;;;21.02;3.97;;;6.10;99.90;;;;;;5155545;27;20042;-85
2023/12/16 06:19:38;;;;;;;22.80;3.83;;;6.80;99.90;;;;;;5155817;27;20054;-85
2023/12/16 06:22:04;;;;;;;23.95;4.78;;;6.50;99.90;;;;;;5138531;27;20045;-85
2023/12/16 06:24:30;;;;;;;24.30;4.20;;;6.10;99.90;;;;;;5155522;27;20082;-85
2023/12/16 06:26:55;;;;;;;26.08;4.65;;;6.90;99.90;;;;;;5155369;27;20041;-86
2023/12/16 06:29:21;;;;;;;32.75;6.38;;;6.90;99.90;;;;;;5155363;27;20042;-86
2023/12/16 06:31:47;;;;;;;42.95;5.43;;;6.00;99.90;;;;;;5137800;27;20031;-85
2023/12/16 06:34:12;;;;;;;24.88;5.45;;;6.80;99.90;;;;;;5155355;27;20046;-86
2023/12/16 06:36:38;;;;;;;37.67;6.70;;;6.20;99.90;;;;;;5155274;27;20505;-85
2023/12/16 06:39:04;;;;;;;28.20;5.55;;;7.00;99.90;;;;;;5155268;27;20072;-86
2023/12/16 06:41:30;;;;;;;25.33;5.10;;;6.60;99.90;;;;;;5154874;27;20041;-86
2023/12/16 06:43:56;;;;;;;30.67;5.38;;;5.30;99.90;;;;;;5154840;27;20559;-85
2023/12/16 06:46:23;;;;;;;29.40;6.15;;;6.30;99.90;;;;;;5154713;27;20122;-86
2023/12/16 06:48:49;;;;;;;37.00;6.70;;;6.30;99.90;;;;;;5155724;27;20482;-86
2023/12/16 06:51:15;;;;;;;47.08;7.35;;;6.90;99.90;;;;;;5155970;27;20030;-86
2023/12/16 06:53:40;;;;;;;33.78;6.30;;;7.00;99.90;;;;;;5155223;27;20514;-86
2023/12/16 06:56:07;;;;;;;31.30;7.18;;;6.90;99.90;;;;;;5156225;27;20114;-86
2023/12/16 06:58:34;;;;;;;32.35;7.05;;;6.40;99.90;;;;;;5137905;27;20047;-85
2023/12/16 07:01:00;;;;;;;38.13;7.22;;;7.20;99.90;;;;;;5155960;27;20034;-85
2023/12/16 07:03:28;;;;;;;36.83;6.50;;;6.90;99.90;;;;;;5136981;27;20489;-85
2023/12/16 07:05:54;;;;;;;35.22;7.60;;;6.50;99.90;;;;;;5154587;27;20383;-87
2023/12/16 07:08:20;;;;;;;46.03;7.05;;;7.10;99.90;;;;;;5154632;27;20478;-85
2023/12/16 07:10:46;;;;;;;45.47;8.32;;;6.80;99.90;;;;;;5154495;27;20159;-85
2023/12/16 07:13:11;;;;;;;39.53;7.63;;;7.40;99.90;;;;;;5155184;27;20039;-85
2023/12/16 07:15:38;;;;;;;44.17;8.82;;;6.50;99.90;;;;;;5155037;27;20038;-85
2023/12/16 07:18:04;;;;;;;45.35;7.82;;;6.50;99.90;;;;;;5154764;27;20406;-85
2023/12/16 07:20:30;;;;;;;51.22;8.25;;;6.70;99.90;;;;;;5154753;27;20065;-85
2023/12/16 07:22:56;;;;;;;43.42;8.25;;;6.70;99.90;;;;;;5155046;27;20047;-86
2023/12/16 07:25:21;;;;;;;41.97;9.93;;;6.90;99.90;;;;;;5153730;27;20057;-85
2023/12/16 07:27:47;;;;;;;56.10;10.43;;;7.40;99.90;;;;;;5154324;27;20402;-85
2023/12/16 07:30:15;;;;;;;55.65;10.27;;;6.70;99.90;;;;;;5154309;27;20089;-85
2023/12/16 07:32:41;;;;;;;31.33;7.63;;;6.50;99.90;;;;;;5154088;27;20046;-85
2023/12/16 07:35:12;;;;;;;51.28;9.07;;;7.20;99.90;;;;;;5144342;27;20050;-85
2023/12/16 07:37:42;;;;;;;62.50;12.32;;;6.80;99.90;;;;;;5154045;27;20050;-85
2023/12/16 07:40:11;;;;;;;56.83;10.32;;;6.80;99.90;;;;;;5153994;27;20075;-85
2023/12/16 07:42:40;;;;;;;49.45;10.32;;;6.80;99.90;;;;;;5154423;27;20110;-84
2023/12/16 07:45:07;;;;;;;53.80;11.10;;;6.80;99.90;;;;;;5153290;27;20038;-85
2023/12/16 07:47:33;;;;;;;49.05;11.68;;;6.80;99.90;;;;;;5136546;27;20495;-85
2023/12/16 07:49:59;;;;;;;55.88;12.05;;;7.10;99.90;;;;;;5155181;27;20156;-86
2023/12/16 07:52:25;;;;;;;47.53;10.25;;;7.10;99.90;;;;;;5154111;27;20074;-85
2023/12/16 07:54:51;;;;;;;42.35;11.25;;;6.90;99.90;;;;;;5153634;27;20046;-85
2023/12/16 07:57:17;;;;;;;41.63;10.20;;;7.30;99.90;;;;;;5154975;27;20395;-85
2023/12/16 07:59:43;;;;;;;53.65;11.50;;;6.90;99.90;;;;;;5153630;27;20122;-85
2023/12/16 08:02:10;;;;;;;59.80;11.23;;;7.40;99.90;;;;;;5136169;27;20035;-85
2023/12/16 08:04:39;;;;;;;43.08;10.52;;;7.60;99.90;;;;;;5136395;27;20126;-86
2023/12/16 08:07:04;;;;;;;52.42;9.98;;;7.60;99.90;;;;;;5136244;27;20115;-86
2023/12/16 08:09:31;;;;;;;61.55;11.55;;;7.70;99.90;;;;;;5136635;27;20479;-86
2023/12/16 08:11:58;;;;;;;60.35;11.57;;;7.60;99.90;;;;;;5154522;27;20538;-85
2023/12/16 08:14:25;;;;;;;53.55;10.95;;;7.50;99.90;;;;;;5153474;27;20061;-85
2023/12/16 08:16:50;;;;;;;53.75;9.68;;;7.50;99.90;;;;;;5152587;27;20038;-84
2023/12/16 08:19:16;;;;;;;58.92;10.00;;;7.00;99.90;;;;;;5153260;27;20403;-85
2023/12/16 08:21:42;;;;;;;47.78;10.32;;;7.40;99.90;;;;;;5135977;27;20452;-84
2023/12/16 08:24:08;;;;;;;51.85;11.32;;;6.90;99.90;;;;;;5136190;27;20043;-85
2023/12/16 08:26:34;;;;;;;57.05;11.25;;;6.90;99.90;;;;;;5154430;27;20182;-86
2023/12/16 08:28:59;;;;;;;48.63;9.52;;;7.40;99.90;;;;;;5153409;27;20050;-85
2023/12/16 08:31:25;;;;;;;45.95;10.90;;;7.10;99.90;;;;;;5135704;27;20043;-85
2023/12/16 08:33:51;;;;;;;53.17;10.63;;;6.90;99.90;;;;;;5154379;27;20467;-85
2023/12/16 08:36:16;;;;;;;58.35;10.98;;;7.00;99.90;;;;;;5152782;27;20051;-84
2023/12/16 08:38:42;;;;;;;52.92;10.55;;;7.80;99.90;;;;;;5135610;27;20031;-86
2023/12/16 08:41:08;;;;;;;56.55;11.57;;;7.60;99.90;;;;;;5154073;27;20172;-85
2023/12/16 08:43:34;;;;;;;51.58;11.23;;;7.70;99.90;;;;;;5152885;27;20070;-85
2023/12/16 08:46:00;;;;;;;61.13;11.75;;;5.80;99.90;;;;;;5153283;27;20432;-84
2023/12/16 08:48:27;;;;;;;56.90;12.35;;;7.10;99.90;;;;;;5152474;27;20047;-85
2023/12/16 08:50:53;;;;;;;47.95;11.05;;;7.20;99.90;;;;;;5153288;27;20122;-85
2023/12/16 08:53:19;;;;;;;57.97;11.68;;;7.20;99.90;;;;;;5135815;27;20038;-84
2023/12/16 08:55:45;;;;;;;57.88;11.55;;;7.40;99.90;;;;;;5152953;27;20038;-86
2023/12/16 08:58:10;;;;;;;52.90;10.82;;;7.20;99.90;;;;;;5154135;27;20462;-85
2023/12/16 09:00:36;;;;;;;50.90;11.07;;;7.70;99.90;;;;;;5152281;27;20054;-85
2023/12/16 09:03:02;;;;;;;50.58;11.15;;;8.10;99.90;;;;;;5156642;27;20043;-85
2023/12/16 09:05:31;;;;;;;51.17;10.73;;;7.30;99.90;;;;;;5175019;27;20178;-85
2023/12/16 09:07:56;;;;;;;56.08;11.23;;;7.90;99.90;;;;;;5156191;27;20042;-85
2023/12/16 09:10:22;;;;;;;47.38;9.95;;;8.00;99.90;;;;;;5156158;27;20466;-84
2023/12/16 09:12:48;;;;;;;69.07;12.88;;;8.20;99.90;;;;;;5174873;27;20034;-84
2023/12/16 09:15:15;;;;;;;51.58;11.63;;;8.10;99.90;;;;;;5155736;27;20129;-86
2023/12/16 09:17:42;;;;;;;53.78;11.68;;;7.40;99.90;;;;;;5148602;27;20034;-85
2023/12/16 09:20:08;;;;;;;57.78;11.65;;;8.00;99.90;;;;;;5155366;27;20049;-87
2023/12/16 09:22:33;;;;;;;47.63;11.55;;;7.40;99.90;;;;;;5156587;27;20183;-84
2023/12/16 09:25:00;;;;;;;45.97;11.50;;;7.60;99.90;;;;;;5174230;27;20030;-83
2023/12/16 09:27:26;;;;;;;50.83;11.23;;;7.80;99.90;;;;;;5155834;27;20046;-84
2023/12/16 09:29:52;;;;;;;53.30;11.30;;;7.90;99.90;;;;;;5155483;27;20061;-83
2023/12/16 09:32:18;;;;;;;46.58;11.40;;;8.10;99.90;;;;;;5155909;27;20046;-85
2023/12/16 09:34:44;;;;;;;61.13;11.57;;;7.70;99.90;;;;;;5156003;27;20444;-84
2023/12/16 09:37:09;;;;;;;58.90;11.27;;;7.60;99.90;;;;;;5174737;27;20069;-84
2023/12/16 09:39:35;;;;;;;58.83;11.23;;;7.60;99.90;;;;;;5155235;27;20397;-84
2023/12/16 09:42:03;;;;;;;45.22;12.38;;;8.30;99.90;;;;;;5155212;27;20068;-84
2023/12/16 09:44:34;;;;;;;56.97;10.73;;;7.70;99.90;;;;;;5155322;27;20041;-84
2023/12/16 09:47:00;;;;;;;58.15;11.38;;;8.50;99.90;;;;;;5157001;27;20416;-83
2023/12/16 09:49:26;;;;;;;51.28;10.30;;;7.70;99.90;;;;;;5150697;27;20065;-84
2023/12/16 09:51:52;;;;;;;55.88;11.82;;;7.70;99.90;;;;;;5178547;27;20046;-84
2023/12/16 09:54:18;;;;;;;53.10;12.13;;;7.80;99.90;;;;;;5159890;27;20042;-85
2023/12/16 09:56:48;;;;;;;60.28;11.77;;;8.00;99.90;;;;;;5159851;27;20526;-84
2023/12/16 09:59:16;;;;;;;54.55;11.02;;;7.90;99.90;;;;;;5159112;27;20045;-84
2023/12/16 10:01:53;;;;;;;42.42;10.73;;;8.30;99.90;;;;;;5158508;27;20073;-83
2023/12/16 10:04:24;;;;;;;50.95;10.75;;;7.80;99.90;;;;;;5177737;27;20077;-84
2023/12/16 10:06:49;;;;;;;50.60;11.32;;;8.10;99.90;;;;;;5159463;27;20042;-84
2023/12/16 10:09:15;;;;;;;55.13;11.20;;;7.80;99.90;;;;;;5159509;27;20406;-83
2023/12/16 10:11:41;;;;;;;62.70;10.32;;;7.80;99.90;;;;;;5158648;27;20038;-83
2023/12/16 10:14:07;;;;;;;57.50;11.57;;;7.80;99.90;;;;;;5159251;27;20405;-83
2023/12/16 10:16:33;;;;;;;49.10;11.82;;;7.80;99.90;;;;;;5158731;27;20060;-83
2023/12/16 10:18:59;;;;;;;48.42;11.07;;;7.80;99.90;;;;;;5151794;27;20042;-83
2023/12/16 10:21:27;;;;;;;55.20;11.48;;;8.50;99.90;;;;;;5159186;27;20098;-84
2023/12/16 10:23:55;;;;;;;49.38;11.70;;;7.80;99.90;;;;;;5159671;27;20121;-87
2023/12/16 10:26:21;;;;;;;43.25;11.23;;;8.00;99.90;;;;;;5159422;27;20042;-85
2023/12/16 10:28:47;;;;;;;49.13;10.82;;;7.90;99.90;;;;;;5177050;27;20126;-83
2023/12/16 10:31:18;;;;;;;47.90;10.73;;;7.80;99.90;;;;;;5159227;27;20046;-84
2023/12/16 10:33:44;;;;;;;56.38;11.27;;;7.90;99.90;;;;;;5158923;27;20428;-84
2023/12/16 10:36:10;;;;;;;43.35;10.45;;;8.70;99.90;;;;;;5177616;27;20500;-83
2023/12/16 10:38:36;;;;;;;43.90;10.57;;;8.10;99.90;;;;;;5141389;27;20042;-83
2023/12/16 10:41:02;;;;;;;47.08;11.85;;;8.40;99.90;;;;;;5158449;27;20046;-84
2023/12/16 10:43:28;;;;;;;40.95;10.40;;;7.90;99.90;;;;;;5177450;27;20444;-82
2023/12/16 10:45:55;;;;;;;42.92;9.60;;;8.40;99.90;;;;;;5177370;27;20415;-83
2023/12/16 10:48:21;;;;;;;48.42;9.90;;;7.90;99.90;;;;;;5158819;27;20049;-83
2023/12/16 10:50:48;;;;;;;34.17;9.77;;;8.30;99.90;;;;;;5141322;27;20371;-83
2023/12/16 10:53:26;;;;;;;40.60;9.80;;;8.60;99.90;;;;;;5158490;27;20081;-83
2023/12/16 10:56:00;;;;;;;39.15;8.73;;;8.60;99.90;;;;;;5158780;27;20046;-83
2023/12/16 10:58:30;;;;;;;36.08;9.52;;;8.60;99.90;;;;;;5177179;27;20046;-82
2023/12/16 11:01:09;;;;;;;30.92;8.85;;;8.20;99.90;;;;;;5140588;27;20053;-82
2023/12/16 11:03:47;;;;;;;37.05;8.55;;;8.10;99.90;;;;;;5158004;27;20050;-83
2023/12/16 11:06:21;;;;;;;40.58;9.93;;;8.40;99.90;;;;;;5158241;27;20050;-84
2023/12/16 11:08:47;;;;;;;32.58;9.77;;;8.90;99.90;;;;;;5176900;27;20098;-83
2023/12/16 11:11:17;;;;;;;33.47;9.27;;;8.70;99.90;;;;;;5157209;27;20078;-82
2023/12/16 11:13:44;;;;;;;33.92;8.80;;;8.20;99.90;;;;;;5140780;27;20049;-83
2023/12/16 11:16:19;;;;;;;32.67;9.35;;;8.20;99.90;;;;;;5141162;27;20034;-83
2023/12/16 11:18:48;;;;;;;38.95;9.13;;;8.20;99.90;;;;;;5158170;27;20050;-84
2023/12/16 11:21:19;;;;;;;35.22;9.43;;;8.20;99.90;;;;;;5157386;27;20038;-84
2023/12/16 11:23:45;;;;;;;28.05;8.40;;;8.30;99.90;;;;;;5157776;27;20034;-84
2023/12/16 11:26:11;;;;;;;29.17;8.10;;;7.90;99.90;;;;;;5156849;27;20034;-83
2023/12/16 11:28:37;;;;;;;32.50;9.07;;;8.70;99.90;;;;;;5176727;27;20038;-82
2023/12/16 11:31:03;;;;;;;23.60;8.23;;;8.30;99.90;;;;;;5141028;27;20486;-86
2023/12/16 11:33:46;;;;;;;32.65;8.00;;;8.30;99.90;;;;;;5157061;27;20074;-85
2023/12/16 11:36:14;;;;;;;32.97;8.13;;;8.70;99.90;;;;;;5157623;27;20050;-83
2023/12/16 11:38:42;;;;;;;33.05;8.48;;;8.30;99.90;;;;;;5157194;27;20420;-85
2023/12/16 11:41:28;;;;;;;24.45;7.05;;;8.30;99.90;;;;;;5153395;27;20038;-84
2023/12/16 11:43:54;;;;;;;;;;;8.50;99.90;;;;;;5135708;27;20031;-83
2023/12/16 11:46:33;;;;;;;24.70;7.18;;;8.30;99.90;;;;;;5154018;27;19926;-84
2023/12/16 11:49:02;;;;;;;21.58;6.32;;;8.30;99.90;;;;;;5155172;27;20510;-84
2023/12/16 11:51:28;;;;;;;28.60;8.00;;;8.40;99.90;;;;;;5153931;27;20030;-83
2023/12/16 11:53:56;;;;;;;16.00;6.57;;;8.70;99.90;;;;;;5153836;27;20038;-84
2023/12/16 11:56:21;;;;;;;18.65;6.22;;;8.90;99.90;;;;;;5157343;27;20444;-84
2023/12/16 11:58:47;;;;;;;20.00;6.43;;;9.00;99.90;;;;;;5139271;27;20070;-84
2023/12/16 12:01:14;;;;;;;19.75;6.80;;;8.90;99.90;;;;;;5156900;27;20038;-84
2023/12/16 12:03:40;;;;;;;21.20;6.80;;;8.60;99.90;;;;;;5155691;27;20140;-84
2023/12/16 12:06:06;;;;;;;17.88;6.32;;;8.60;99.90;;;;;;5139752;27;20113;-84
2023/12/16 12:08:32;;;;;;;16.25;6.82;;;8.40;99.90;;;;;;5156690;27;20046;-84
2023/12/16 12:10:58;;;;;;;17.52;6.40;;;9.00;99.90;;;;;;5174595;27;20441;-84
2023/12/16 12:13:24;;;;;;;14.52;5.78;;;8.40;99.90;;;;;;5156232;27;20068;-84
2023/12/16 12:15:50;;;;;;;21.90;5.93;;;8.50;99.90;;;;;;5175021;27;20481;-85
2023/12/16 12:18:16;;;;;;;16.38;5.40;;;8.50;99.90;;;;;;5155598;27;20069;-83
2023/12/16 12:20:42;;;;;;;14.82;5.93;;;8.50;99.90;;;;;;5174625;27;20035;-83
2023/12/16 12:23:07;;;;;;;15.43;5.18;;;8.50;99.90;;;;;;5156414;27;20079;-83
2023/12/16 12:25:33;;;;;;;11.95;5.28;;;9.20;99.90;;;;;;5174902;27;20034;-83
2023/12/16 12:27:59;;;;;;;10.57;5.75;;;8.80;99.90;;;;;;5175445;27;20402;-84
2023/12/16 12:30:26;;;;;;;18.55;6.32;;;9.00;99.90;;;;;;5157027;27;20038;-84
2023/12/16 12:32:52;;;;;;;12.10;5.53;;;8.60;99.90;;;;;;5156878;27;20042;-83
2023/12/16 12:35:22;;;;;;;14.45;5.88;;;9.10;99.90;;;;;;5174551;27;20501;-84
2023/12/16 12:37:48;;;;;;;17.17;5.82;;;8.60;99.90;;;;;;5156345;27;20042;-83
2023/12/16 12:40:13;;;;;;;19.48;6.63;;;9.00;99.90;;;;;;5156691;27;20041;-84
2023/12/16 12:42:55;;;;;;;15.65;6.20;;;8.60;99.90;;;;;;5175269;27;20129;-83
2023/12/16 12:45:33;;;;;;;14.60;6.32;;;8.60;99.90;;;;;;5156491;27;20043;-83